Startpagina
METAR-TAF:

METAR-TAF

Vliegvelden :

Wolgograd, Rusland

breedte: 48-47N, lengte: 044-22E, hoogte: 145 m

Actueel weer

Dit bericht is 20 minuten geleden gemaakt, om 12:00 UTC
Wind 10 kt uit het oosten
Temperatuur -6°C
Vochtigheid 41%
Druk 1044 hPa
Zicht 10 km of meer
geen wolken onder 1500 m en geen cumulonimbus

METAR: URWW 221200Z 08005MPS CAVOK M06/M17 Q1044 R06/010070 NOSIG

Tijdstip: 16:20 (12:20 UTC)

Verwachting

Dit bericht is 1 uur en het 21 minuten geleden gemaakt, om 10:59 UTC
Verwachting geldig van 22 om 12 UTC tot 22 om 21 UTC
Wind 10 kt uit het oostnoordoosten met uitschieters tot 19 kt
Zicht 10 km of meer
geen wolken onder 1500 m en geen cumulonimbus
Tijdelijke
van 22 om 12 UTC tot 22 om 21 UTC
Wind 12 kt uit het oosten met uitschieters tot 23 kt

TAF: URWW 221059Z 2212/2221 07005G10MPS CAVOK TEMPO 2212/2221 10006G12MPS

Waarnemingen en weersverwachtingen van meer dan 4000 vliegvelden (METAR en TAF).

De beschikbare stations zijn de gele en rode punten op de kaart.

Ga met uw muis naar het station om de naam te zien.

Klik dan om waarnemingen en weersverwachtingen te zien.

kaart wijzigen: klik op de groene knoppen met een zwart kruis om in te zoomen, op de groene knop met een streepje om uit te zoomen of op de groene pijlen voor aangrenzende kaarten.


METAR-TAF: